createdAt,value
2018-05-21T00:01:24.556Z,48.96
2018-05-21T00:03:52.054Z,49.36
2018-05-21T00:06:19.620Z,49.41
2018-05-21T00:08:47.125Z,49.67
2018-05-21T00:11:14.637Z,50.05
2018-05-21T00:13:42.121Z,50.42
2018-05-21T00:16:09.692Z,50.53
2018-05-21T00:18:37.176Z,50.86
2018-05-21T00:21:04.686Z,51.12
2018-05-21T00:23:32.161Z,51.06
2018-05-21T00:25:59.645Z,51.30
2018-05-21T00:28:27.184Z,51.33
2018-05-21T00:30:54.687Z,51.61
2018-05-21T00:33:22.224Z,51.89
2018-05-21T00:35:49.746Z,52.06
2018-05-21T00:38:17.215Z,52.20
2018-05-21T00:40:44.740Z,52.10
2018-05-21T00:43:12.294Z,52.42
2018-05-21T00:45:39.852Z,52.81
2018-05-21T00:48:07.356Z,53.22
2018-05-21T00:50:34.864Z,53.49
2018-05-21T00:53:02.403Z,53.66
2018-05-21T00:55:38.640Z,54.00
2018-05-21T00:58:06.164Z,54.25
2018-05-21T01:00:33.657Z,54.39
2018-05-21T01:03:01.175Z,54.57
2018-05-21T01:05:28.696Z,54.73
2018-05-21T01:07:56.253Z,54.63
2018-05-21T01:10:23.758Z,54.86
2018-05-21T01:12:51.316Z,54.99
2018-05-21T01:15:18.819Z,55.22
2018-05-21T01:17:46.292Z,55.52
2018-05-21T01:20:13.829Z,55.70
2018-05-21T01:22:41.355Z,55.90
2018-05-21T01:25:08.859Z,56.41
2018-05-21T01:27:36.368Z,56.75
2018-05-21T01:30:06.713Z,57.00
2018-05-21T01:32:34.244Z,57.47
2018-05-21T01:35:01.783Z,57.72
2018-05-21T01:37:29.265Z,57.98
2018-05-21T01:39:56.782Z,58.43
2018-05-21T01:45:22.040Z,59.05
2018-05-21T01:47:49.581Z,59.10
2018-05-21T01:50:17.087Z,59.25
2018-05-21T01:52:44.583Z,59.41
2018-05-21T01:55:12.093Z,59.38
2018-05-21T01:57:39.606Z,59.86
2018-05-21T02:00:07.164Z,59.96
2018-05-21T02:02:34.649Z,60.30
2018-05-21T02:05:02.164Z,60.35
2018-05-21T02:07:29.681Z,60.75
2018-05-21T02:09:57.179Z,60.80
2018-05-21T02:12:24.696Z,60.89
2018-05-21T02:14:52.277Z,61.14
2018-05-21T02:17:19.834Z,60.94
2018-05-21T02:19:47.383Z,61.06
2018-05-21T02:22:14.898Z,61.49
2018-05-21T02:24:42.436Z,61.77
2018-05-21T02:27:09.988Z,61.93
2018-05-21T02:29:37.516Z,62.12
2018-05-21T02:32:05.116Z,62.45
2018-05-21T02:34:32.706Z,62.87
2018-05-21T02:37:00.236Z,62.98
2018-05-21T02:39:27.743Z,63.18
2018-05-21T02:41:55.277Z,63.51
2018-05-21T02:44:22.755Z,63.64
2018-05-21T02:46:50.294Z,63.79
2018-05-21T02:49:17.807Z,63.93
2018-05-21T02:51:45.319Z,64.02
2018-05-21T02:54:12.871Z,64.01
2018-05-21T02:56:40.335Z,64.30
2018-05-21T02:59:07.884Z,64.37
2018-05-21T03:01:35.360Z,64.60
2018-05-21T03:04:02.861Z,64.83
2018-05-21T03:06:30.379Z,64.96
2018-05-21T03:08:57.914Z,64.94
2018-05-21T03:11:25.474Z,65.20
2018-05-21T03:13:53.004Z,65.34
2018-05-21T03:16:20.521Z,65.62
2018-05-21T03:18:48.052Z,66.24
2018-05-21T03:21:15.542Z,66.34
2018-05-21T03:23:43.027Z,66.24
2018-05-21T03:26:10.542Z,66.29
2018-05-21T03:28:38.040Z,66.33
2018-05-21T03:31:05.559Z,66.42
2018-05-21T03:33:33.037Z,66.59
2018-05-21T03:36:00.564Z,66.67
2018-05-21T03:38:28.077Z,66.88
2018-05-21T03:40:55.602Z,66.84
2018-05-21T03:43:23.103Z,66.93
2018-05-21T03:45:50.607Z,67.04
2018-05-21T03:48:18.117Z,67.21
2018-05-21T03:50:45.653Z,67.36
2018-05-21T03:53:13.673Z,67.39
2018-05-21T03:55:41.283Z,67.43
2018-05-21T03:58:20.446Z,67.57
2018-05-21T04:00:59.512Z,67.49
2018-05-21T04:03:35.750Z,67.56
2018-05-21T04:06:03.239Z,67.57
2018-05-21T04:08:30.732Z,67.82
2018-05-21T04:10:58.264Z,67.85
2018-05-21T04:13:25.732Z,67.81
2018-05-21T04:15:53.227Z,68.14
2018-05-21T04:18:20.740Z,68.07
2018-05-21T04:20:48.222Z,67.99
2018-05-21T04:23:15.760Z,68.27
2018-05-21T04:25:43.367Z,68.31
2018-05-21T04:28:10.861Z,68.27
2018-05-21T04:30:38.384Z,68.52
2018-05-21T04:33:05.914Z,68.75
2018-05-21T04:35:33.440Z,68.69
2018-05-21T04:38:00.965Z,68.72
2018-05-21T04:40:28.476Z,68.52
2018-05-21T04:42:55.996Z,68.74
2018-05-21T04:45:23.675Z,68.66
2018-05-21T04:47:51.165Z,68.64
2018-05-21T04:50:18.660Z,68.69
2018-05-21T04:52:46.202Z,68.45
2018-05-21T04:55:13.754Z,68.42
2018-05-21T04:57:41.277Z,68.30
2018-05-21T05:00:08.793Z,68.39
2018-05-21T05:02:36.304Z,68.32
2018-05-21T05:05:03.814Z,68.46
2018-05-21T05:07:31.341Z,68.20
2018-05-21T05:09:58.840Z,68.30
2018-05-21T05:12:26.339Z,68.29
2018-05-21T05:14:53.896Z,68.15
2018-05-21T05:17:21.376Z,67.97
2018-05-21T05:19:48.876Z,67.87
2018-05-21T05:22:16.391Z,67.67
2018-05-21T05:24:43.945Z,68.12
2018-05-21T05:27:11.427Z,67.91
2018-05-21T05:29:38.965Z,68.06
2018-05-21T05:32:06.454Z,67.69
2018-05-21T05:34:33.979Z,68.86
2018-05-21T05:37:01.488Z,68.76
2018-05-21T05:39:29.040Z,68.90
2018-05-21T05:41:56.560Z,67.83
2018-05-21T05:44:24.045Z,67.38
2018-05-21T05:46:51.588Z,65.76
2018-05-21T05:49:19.135Z,63.55
2018-05-21T05:51:46.641Z,60.63
2018-05-21T05:54:14.296Z,59.97
2018-05-21T05:56:41.831Z,58.36
2018-05-21T05:59:09.312Z,56.74
2018-05-21T06:01:36.835Z,57.34
2018-05-21T06:04:04.333Z,57.23
2018-05-21T06:06:31.866Z,57.93
2018-05-21T06:08:59.352Z,56.57
2018-05-21T06:11:26.890Z,56.42
2018-05-21T06:13:54.412Z,57.32
2018-05-21T06:16:21.971Z,54.52
2018-05-21T06:18:49.533Z,55.60
2018-05-21T06:21:17.055Z,56.10
2018-05-21T06:23:44.590Z,55.44
2018-05-21T06:26:12.087Z,55.54
2018-05-21T06:28:39.590Z,55.73
2018-05-21T06:31:07.083Z,54.72
2018-05-21T06:33:34.598Z,55.88
2018-05-21T06:36:02.079Z,55.36
2018-05-21T06:38:29.619Z,55.59
2018-05-21T06:40:57.237Z,55.98
2018-05-21T06:43:24.726Z,55.68
2018-05-21T06:45:52.224Z,54.59
2018-05-21T06:48:19.755Z,55.48
2018-05-21T06:50:47.240Z,56.00
2018-05-21T06:53:14.700Z,54.83
2018-05-21T06:55:42.233Z,55.34
2018-05-21T06:58:09.719Z,55.06
2018-05-21T07:00:37.237Z,54.76
2018-05-21T07:03:04.755Z,56.06
2018-05-21T07:05:32.263Z,55.29
2018-05-21T07:07:59.756Z,56.38
2018-05-21T07:10:27.270Z,56.32
2018-05-21T07:12:54.843Z,54.99
2018-05-21T07:15:22.347Z,56.92
2018-05-21T07:17:49.844Z,54.40
2018-05-21T07:20:17.412Z,56.80
2018-05-21T07:22:44.931Z,54.74
2018-05-21T07:25:13.048Z,56.17
2018-05-21T07:27:40.600Z,54.47
2018-05-21T07:30:08.125Z,52.34
2018-05-21T07:32:35.623Z,51.49
2018-05-21T07:35:03.187Z,50.81
2018-05-21T07:37:30.738Z,49.83
2018-05-21T07:39:58.230Z,51.85
2018-05-21T07:42:25.764Z,50.53
2018-05-21T07:44:53.608Z,48.98
2018-05-21T07:47:21.100Z,49.13
2018-05-21T07:49:48.607Z,49.24
2018-05-21T07:52:16.115Z,50.60
2018-05-21T07:54:43.636Z,49.52
2018-05-21T07:57:11.132Z,49.50
2018-05-21T07:59:38.679Z,48.77
2018-05-21T08:02:07.951Z,48.40
2018-05-21T08:04:35.459Z,47.61
2018-05-21T08:07:03.831Z,47.69
2018-05-21T08:09:31.388Z,47.67
2018-05-21T08:11:58.917Z,48.98
2018-05-21T08:14:28.749Z,48.35
2018-05-21T08:16:56.256Z,48.41
2018-05-21T08:19:26.575Z,47.06
2018-05-21T08:21:54.199Z,46.90
2018-05-21T08:24:21.709Z,47.09
2018-05-21T08:26:49.240Z,47.82
2018-05-21T08:29:18.282Z,47.42
2018-05-21T08:31:45.832Z,47.07
2018-05-21T08:34:14.794Z,47.36
2018-05-21T08:36:42.449Z,46.97
2018-05-21T08:39:10.136Z,46.24
2018-05-21T08:41:37.655Z,47.32
2018-05-21T08:44:06.542Z,46.14
2018-05-21T08:46:35.116Z,45.94
2018-05-21T08:49:02.684Z,45.71
2018-05-21T08:51:33.714Z,46.55
2018-05-21T08:54:01.249Z,46.61
2018-05-21T08:56:30.536Z,46.17
2018-05-21T08:58:58.062Z,46.12
2018-05-21T09:01:25.636Z,46.09
2018-05-21T09:03:53.378Z,47.32
2018-05-21T09:06:20.936Z,47.51
2018-05-21T09:08:49.874Z,47.48
2018-05-21T09:11:17.476Z,46.54
2018-05-21T09:13:45.010Z,47.16
2018-05-21T09:16:12.637Z,46.67
2018-05-21T09:18:40.273Z,46.57
2018-05-21T09:21:08.258Z,46.30
2018-05-21T09:23:35.852Z,46.04
2018-05-21T09:26:03.430Z,46.04
2018-05-21T09:28:30.972Z,45.61
2018-05-21T09:30:58.571Z,46.78
2018-05-21T09:33:26.233Z,46.56
2018-05-21T09:35:53.794Z,47.48
2018-05-21T09:38:21.336Z,47.01
2018-05-21T09:40:48.935Z,47.18
2018-05-21T09:43:16.524Z,46.24
2018-05-21T09:45:44.113Z,47.06
2018-05-21T09:48:11.732Z,46.70
2018-05-21T09:50:39.407Z,47.22
2018-05-21T09:53:07.057Z,44.86
2018-05-21T09:55:34.665Z,45.97
2018-05-21T09:58:06.011Z,44.51
2018-05-21T10:00:33.861Z,45.60
2018-05-21T10:03:01.405Z,43.83
2018-05-21T10:05:29.879Z,43.15
2018-05-21T10:07:57.396Z,43.72
2018-05-21T10:10:25.031Z,44.10
2018-05-21T10:12:52.786Z,43.80
2018-05-21T10:15:20.353Z,43.33
2018-05-21T10:17:47.932Z,41.19
2018-05-21T10:20:15.533Z,41.30
2018-05-21T10:22:43.155Z,43.60
2018-05-21T10:25:10.635Z,41.04
2018-05-21T10:27:41.570Z,41.22
2018-05-21T10:30:09.315Z,42.08
2018-05-21T10:32:36.977Z,40.66
2018-05-21T10:35:04.630Z,38.96
2018-05-21T10:37:34.756Z,39.65
2018-05-21T10:40:02.500Z,39.84
2018-05-21T10:42:30.184Z,39.07
2018-05-21T10:44:57.742Z,39.09
2018-05-21T10:47:25.915Z,38.09
2018-05-21T10:49:53.785Z,38.47
2018-05-21T10:52:21.325Z,38.99
2018-05-21T10:54:48.920Z,38.25
2018-05-21T10:57:17.886Z,38.88
2018-05-21T10:59:45.837Z,37.90
2018-05-21T11:02:13.489Z,38.02
2018-05-21T11:04:42.454Z,37.86
2018-05-21T11:07:09.991Z,37.93
2018-05-21T11:09:37.550Z,38.14
2018-05-21T11:12:05.161Z,37.83
2018-05-21T11:14:32.749Z,37.97
2018-05-21T11:17:00.333Z,39.21
2018-05-21T11:19:27.933Z,39.31
2018-05-21T11:21:55.659Z,38.98
2018-05-21T11:24:23.247Z,39.89
2018-05-21T11:26:50.822Z,39.47
2018-05-21T11:29:18.389Z,40.72
2018-05-21T11:31:51.932Z,39.54
2018-05-21T11:34:19.641Z,40.12
2018-05-21T11:36:47.192Z,39.82
2018-05-21T11:39:14.760Z,40.92
2018-05-21T11:41:42.320Z,40.43
2018-05-21T11:44:10.172Z,38.91
2018-05-21T11:46:37.833Z,39.04
2018-05-21T11:49:05.431Z,39.56
2018-05-21T11:51:33.186Z,39.89
2018-05-21T11:54:00.853Z,39.56
2018-05-21T11:56:28.722Z,39.41
2018-05-21T11:58:56.341Z,38.25
2018-05-21T12:01:24.022Z,37.98
2018-05-21T12:03:51.962Z,38.77
2018-05-21T12:06:19.539Z,37.80
2018-05-21T12:08:48.114Z,38.29
2018-05-21T12:11:15.763Z,37.47
2018-05-21T12:13:43.448Z,38.54
2018-05-21T12:16:11.207Z,37.87
2018-05-21T12:18:40.593Z,37.87
2018-05-21T12:21:08.136Z,36.48
2018-05-21T12:23:35.697Z,35.45
2018-05-21T12:26:03.213Z,36.48
2018-05-21T12:28:30.763Z,35.81
2018-05-21T12:30:58.295Z,36.02
2018-05-21T12:33:26.304Z,35.03
2018-05-21T12:35:53.808Z,35.18
2018-05-21T12:38:21.378Z,36.17
2018-05-21T12:40:48.910Z,35.53
2018-05-21T12:43:16.400Z,35.61
2018-05-21T12:45:43.929Z,34.53
2018-05-21T12:48:11.453Z,35.48
2018-05-21T12:50:40.065Z,34.06
2018-05-21T12:53:07.561Z,34.15
2018-05-21T12:55:35.095Z,33.94
2018-05-21T12:58:02.638Z,34.13
2018-05-21T13:00:30.162Z,34.74
2018-05-21T13:02:57.767Z,35.48
2018-05-21T13:05:25.245Z,35.47
2018-05-21T13:07:52.727Z,35.32
2018-05-21T13:10:20.244Z,36.63
2018-05-21T13:12:47.798Z,34.14
2018-05-21T13:15:15.320Z,35.20
2018-05-21T13:17:42.828Z,34.57
2018-05-21T13:20:10.323Z,34.67
2018-05-21T13:22:37.824Z,35.41
2018-05-21T13:25:05.311Z,34.38
2018-05-21T13:27:32.854Z,34.88
2018-05-21T13:30:00.401Z,34.95
2018-05-21T13:32:27.913Z,35.61
2018-05-21T13:34:55.523Z,35.38
2018-05-21T13:37:23.088Z,36.10
2018-05-21T13:39:50.564Z,35.15
2018-05-21T13:42:18.047Z,34.95
2018-05-21T13:44:45.576Z,34.80
2018-05-21T13:47:13.111Z,34.30
2018-05-21T13:49:41.699Z,34.93
2018-05-21T13:52:09.354Z,35.48
2018-05-21T13:54:36.845Z,35.34
2018-05-21T13:57:04.414Z,35.76
2018-05-21T13:59:31.936Z,36.13
2018-05-21T14:01:59.455Z,35.65
2018-05-21T14:04:26.983Z,35.51
2018-05-21T14:06:54.641Z,35.34
2018-05-21T14:09:22.173Z,35.31
2018-05-21T14:11:49.661Z,36.08
2018-05-21T14:14:17.171Z,35.49
2018-05-21T14:16:44.877Z,35.74
2018-05-21T14:19:12.621Z,35.57
2018-05-21T14:21:40.195Z,36.40
2018-05-21T14:24:07.765Z,36.29
2018-05-21T14:26:35.325Z,36.44
2018-05-21T14:29:02.857Z,35.85
2018-05-21T14:31:30.344Z,35.54
2018-05-21T14:33:57.877Z,35.57
2018-05-21T14:36:25.366Z,35.62
2018-05-21T14:38:52.904Z,36.37
2018-05-21T14:41:21.361Z,35.39
2018-05-21T14:43:48.955Z,35.97
2018-05-21T14:46:16.513Z,35.23
2018-05-21T14:48:44.074Z,34.25
2018-05-21T14:51:15.992Z,34.43
2018-05-21T14:53:43.553Z,35.04
2018-05-21T14:56:11.049Z,34.94
2018-05-21T14:58:38.560Z,34.30
2018-05-21T15:01:06.093Z,34.12
2018-05-21T15:03:33.626Z,33.99
2018-05-21T15:06:01.178Z,34.24
2018-05-21T15:08:28.702Z,33.08
2018-05-21T15:10:56.211Z,33.14
2018-05-21T15:13:23.748Z,33.12
2018-05-21T15:15:51.280Z,33.35
2018-05-21T15:18:21.337Z,33.01
2018-05-21T15:20:48.792Z,32.91
2018-05-21T15:23:16.315Z,32.99
2018-05-21T15:25:44.937Z,33.20
2018-05-21T15:28:12.428Z,33.48
2018-05-21T15:30:39.959Z,34.27
2018-05-21T15:33:07.515Z,34.14
2018-05-21T15:35:35.065Z,33.89
2018-05-21T15:38:02.557Z,34.01
2018-05-21T15:40:30.185Z,35.36
2018-05-21T15:42:57.963Z,34.94
2018-05-21T15:45:25.612Z,35.22
2018-05-21T15:47:53.177Z,35.59
2018-05-21T15:50:22.072Z,35.23
2018-05-21T15:52:49.633Z,35.46
2018-05-21T15:55:17.118Z,34.83
2018-05-21T15:57:44.711Z,34.54
2018-05-21T16:00:12.189Z,34.78
2018-05-21T16:02:39.753Z,35.95
2018-05-21T16:05:07.385Z,35.34
2018-05-21T16:07:34.893Z,36.69
2018-05-21T16:10:02.397Z,36.22
2018-05-21T16:12:29.971Z,34.89
2018-05-21T16:14:57.586Z,34.87
2018-05-21T16:17:25.110Z,35.02
2018-05-21T16:19:52.717Z,34.99
2018-05-21T16:22:21.148Z,35.10
2018-05-21T16:24:48.736Z,35.04
2018-05-21T16:27:16.315Z,35.15
2018-05-21T16:29:43.961Z,35.17
2018-05-21T16:32:11.595Z,35.03
2018-05-21T16:34:39.149Z,35.79
2018-05-21T16:37:06.640Z,35.33
2018-05-21T16:39:34.249Z,35.55
2018-05-21T16:42:01.775Z,37.12
2018-05-21T16:44:29.398Z,36.85
2018-05-21T16:46:57.033Z,37.25
2018-05-21T16:49:24.613Z,38.22
2018-05-21T16:51:52.210Z,36.15
2018-05-21T16:54:19.739Z,35.91
2018-05-21T16:56:47.228Z,35.60
2018-05-21T16:59:14.803Z,36.69
2018-05-21T17:01:42.296Z,36.60
2018-05-21T17:04:09.854Z,36.40
2018-05-21T17:06:37.388Z,37.21
2018-05-21T17:09:04.936Z,37.24
2018-05-21T17:11:32.461Z,36.85
2018-05-21T17:13:59.974Z,36.96
2018-05-21T17:16:27.556Z,36.93
2018-05-21T17:18:55.304Z,37.40
2018-05-21T17:21:23.064Z,36.93
2018-05-21T17:23:51.872Z,37.62
2018-05-21T17:26:21.202Z,37.28
2018-05-21T17:28:48.805Z,36.87
2018-05-21T17:31:20.661Z,37.01
2018-05-21T17:33:52.744Z,38.01
2018-05-21T17:36:21.289Z,37.13
2018-05-21T17:38:48.965Z,37.25
2018-05-21T17:41:16.523Z,37.00
2018-05-21T17:43:44.119Z,36.89
2018-05-21T17:46:11.806Z,37.32
2018-05-21T17:48:39.483Z,37.55
2018-05-21T17:51:07.054Z,38.09
2018-05-21T17:53:34.779Z,38.27
2018-05-21T17:56:02.372Z,39.07
2018-05-21T17:58:30.198Z,42.05
2018-05-21T18:00:58.516Z,39.23
2018-05-21T18:03:26.399Z,39.53
2018-05-21T18:05:54.152Z,40.14
2018-05-21T18:08:22.004Z,44.33
2018-05-21T18:10:49.904Z,41.00
2018-05-21T18:13:19.131Z,40.43
2018-05-21T18:15:46.857Z,40.36
2018-05-21T18:18:14.440Z,41.14
2018-05-21T18:20:41.954Z,40.14
2018-05-21T18:23:09.504Z,40.03
2018-05-21T18:25:37.290Z,40.27
2018-05-21T18:28:05.046Z,39.92
2018-05-21T18:30:32.584Z,39.50
2018-05-21T18:33:00.092Z,39.19
2018-05-21T18:35:27.633Z,39.42
2018-05-21T18:37:55.317Z,39.35
2018-05-21T18:40:22.936Z,38.74
2018-05-21T18:42:50.439Z,40.18
2018-05-21T18:45:18.032Z,39.08
2018-05-21T18:47:46.024Z,38.55
2018-05-21T18:50:13.738Z,39.63
2018-05-21T18:52:41.392Z,39.05
2018-05-21T18:55:09.308Z,39.64
2018-05-21T18:57:37.772Z,39.24
2018-05-21T19:00:05.565Z,40.38
2018-05-21T19:02:33.052Z,41.07
2018-05-21T19:05:00.720Z,39.95
2018-05-21T19:07:28.462Z,41.29
2018-05-21T19:09:58.384Z,41.13
2018-05-21T19:12:26.507Z,40.53
2018-05-21T19:14:54.075Z,40.83
2018-05-21T19:17:21.729Z,41.44
2018-05-21T19:19:49.797Z,40.68
2018-05-21T19:22:20.646Z,40.73
2018-05-21T19:24:48.409Z,41.70
2018-05-21T19:27:16.185Z,43.10
2018-05-21T19:29:44.244Z,42.13
2018-05-21T19:32:12.235Z,42.08
2018-05-21T19:34:39.856Z,42.20
2018-05-21T19:37:07.356Z,43.32
2018-05-21T19:39:36.025Z,43.39
2018-05-21T19:42:03.707Z,43.00
2018-05-21T19:44:31.222Z,42.69
2018-05-21T19:46:58.720Z,43.87
2018-05-21T19:49:26.324Z,43.20
2018-05-21T19:51:53.899Z,43.13
2018-05-21T19:54:21.461Z,43.27
2018-05-21T19:56:48.940Z,43.58
2018-05-21T19:59:16.691Z,43.83
2018-05-21T20:01:44.172Z,44.00
2018-05-21T20:04:11.695Z,44.28
2018-05-21T20:06:40.591Z,44.88
2018-05-21T20:09:08.110Z,44.88
2018-05-21T20:11:35.658Z,44.89
2018-05-21T20:14:03.203Z,45.14
2018-05-21T20:16:30.826Z,45.20
2018-05-21T20:18:58.563Z,45.60
2018-05-21T20:21:26.184Z,45.80
2018-05-21T20:23:53.783Z,46.13
2018-05-21T20:26:21.286Z,46.25
2018-05-21T20:28:49.126Z,46.57
2018-05-21T20:31:16.630Z,46.63
2018-05-21T20:33:44.239Z,46.64
2018-05-21T20:36:11.742Z,47.23
2018-05-21T20:38:39.307Z,47.32
2018-05-21T20:41:06.875Z,47.68
2018-05-21T20:43:34.396Z,47.71
2018-05-21T20:46:01.996Z,48.35
2018-05-21T20:48:29.495Z,47.87
2018-05-21T20:50:56.974Z,48.21
2018-05-21T20:53:24.497Z,48.70
2018-05-21T20:55:52.019Z,48.22
2018-05-21T20:58:19.514Z,48.29
2018-05-21T21:00:47.104Z,48.23
2018-05-21T21:03:14.651Z,49.19
2018-05-21T21:05:42.626Z,49.61
2018-05-21T21:08:10.179Z,49.51
2018-05-21T21:10:37.782Z,49.56
2018-05-21T21:13:05.292Z,49.91
2018-05-21T21:15:32.774Z,50.54
2018-05-21T21:18:00.314Z,50.49
2018-05-21T21:20:27.878Z,50.61
2018-05-21T21:22:55.420Z,50.82
2018-05-21T21:25:22.955Z,50.88
2018-05-21T21:27:50.459Z,50.96
2018-05-21T21:30:17.993Z,50.77
2018-05-21T21:32:45.503Z,51.07
2018-05-21T21:35:13.051Z,51.22
2018-05-21T21:37:40.580Z,50.99
2018-05-21T21:40:08.076Z,51.17
2018-05-21T21:42:35.604Z,52.46
2018-05-21T21:45:04.991Z,51.65
2018-05-21T21:47:32.562Z,52.07
2018-05-21T21:50:00.426Z,51.96
2018-05-21T21:52:27.980Z,52.27
2018-05-21T21:54:55.505Z,51.88
2018-05-21T21:57:23.029Z,52.11
2018-05-21T21:59:50.555Z,51.76
2018-05-21T22:02:18.156Z,52.39
2018-05-21T22:04:45.751Z,52.15
2018-05-21T22:07:13.340Z,51.80
2018-05-21T22:09:40.837Z,51.19
2018-05-21T22:12:08.357Z,51.40
2018-05-21T22:14:35.884Z,51.51
2018-05-21T22:17:03.383Z,51.46
2018-05-21T22:19:30.901Z,52.26
2018-05-21T22:21:58.437Z,51.23
2018-05-21T22:24:26.010Z,51.17
2018-05-21T22:26:53.535Z,50.78
2018-05-21T22:29:21.961Z,51.09
2018-05-21T22:31:49.612Z,51.24
2018-05-21T22:34:17.127Z,52.33
2018-05-21T22:36:44.653Z,52.46
2018-05-21T22:39:12.206Z,52.28
2018-05-21T22:41:39.687Z,52.17
2018-05-21T22:44:07.255Z,52.12
2018-05-21T22:46:34.760Z,52.92
2018-05-21T22:49:03.141Z,53.44
2018-05-21T22:51:30.656Z,53.30
2018-05-21T22:53:58.176Z,53.51
2018-05-21T22:56:25.719Z,53.52
2018-05-21T22:58:53.214Z,53.98
2018-05-21T23:01:20.725Z,54.04
2018-05-21T23:03:48.234Z,54.29
2018-05-21T23:06:15.746Z,54.37
2018-05-21T23:08:43.355Z,54.52
2018-05-21T23:11:10.869Z,54.14
2018-05-21T23:13:38.402Z,54.87
2018-05-21T23:16:05.919Z,54.86
2018-05-21T23:18:33.436Z,54.83
2018-05-21T23:21:00.984Z,54.95
2018-05-21T23:23:28.504Z,55.24
2018-05-21T23:25:56.015Z,54.57
2018-05-21T23:28:23.512Z,54.72
2018-05-21T23:30:51.045Z,54.95
2018-05-21T23:33:18.603Z,54.72
2018-05-21T23:35:46.131Z,54.96
2018-05-21T23:38:13.630Z,54.70
2018-05-21T23:40:41.165Z,55.35
2018-05-21T23:43:08.635Z,55.41
2018-05-21T23:45:36.162Z,55.36
2018-05-21T23:48:03.655Z,55.75
2018-05-21T23:50:31.150Z,55.81
2018-05-21T23:52:58.655Z,55.73
2018-05-21T23:55:26.148Z,55.86
2018-05-21T23:57:53.663Z,56.51
